sensor_id;sensor_type;location;lat;lon;timestamp;pressure;altitude;pressure_sealevel;temperature
41654;BMP280;30790;52.030;7.110;2022-08-19T00:01:39;100620.44;;;23.93
41654;BMP280;30790;52.030;7.110;2022-08-19T00:04:07;100627.84;;;23.98
41654;BMP280;30790;52.030;7.110;2022-08-19T00:06:34;100620.69;;;23.97
41654;BMP280;30790;52.030;7.110;2022-08-19T00:09:00;100624.00;;;23.94
41654;BMP280;30790;52.030;7.110;2022-08-19T00:11:26;100594.06;;;23.77
41654;BMP280;30790;52.030;7.110;2022-08-19T00:13:55;100635.50;;;23.96
41654;BMP280;30790;52.030;7.110;2022-08-19T00:16:22;100631.66;;;23.97
41654;BMP280;30790;52.030;7.110;2022-08-19T00:18:48;100639.91;;;23.97
41654;BMP280;30790;52.030;7.110;2022-08-19T00:21:14;100639.91;;;23.97
41654;BMP280;30790;52.030;7.110;2022-08-19T00:23:40;100628.94;;;23.92
41654;BMP280;30790;52.030;7.110;2022-08-19T00:26:06;100632.75;;;23.96
41654;BMP280;30790;52.030;7.110;2022-08-19T00:28:32;100620.16;;;23.85
41654;BMP280;30790;52.030;7.110;2022-08-19T00:30:59;100625.09;;;23.93
41654;BMP280;30790;52.030;7.110;2022-08-19T00:33:24;100626.72;;;23.94
41654;BMP280;30790;52.030;7.110;2022-08-19T00:35:50;100626.72;;;23.89
41654;BMP280;30790;52.030;7.110;2022-08-19T00:38:15;100640.16;;;23.95
41654;BMP280;30790;52.030;7.110;2022-08-19T00:40:44;100633.31;;;23.93
41654;BMP280;30790;52.030;7.110;2022-08-19T00:43:12;100628.38;;;23.95
41654;BMP280;30790;52.030;7.110;2022-08-19T00:45:40;100624.00;;;23.94
41654;BMP280;30790;52.030;7.110;2022-08-19T00:48:09;100627.28;;;23.91
41654;BMP280;30790;52.030;7.110;2022-08-19T00:50:35;100626.72;;;23.94
41654;BMP280;30790;52.030;7.110;2022-08-19T00:53:02;100630.31;;;23.94
41654;BMP280;30790;52.030;7.110;2022-08-19T00:55:28;100619.06;;;23.91
41654;BMP280;30790;52.030;7.110;2022-08-19T00:57:58;100613.84;;;23.89
41654;BMP280;30790;52.030;7.110;2022-08-19T01:00:26;100618.78;;;23.92
41654;BMP280;30790;52.030;7.110;2022-08-19T01:02:52;100612.47;;;23.92
41654;BMP280;30790;52.030;7.110;2022-08-19T01:05:24;100607.53;;;23.89
41654;BMP280;30790;52.030;7.110;2022-08-19T01:07:53;100613.56;;;23.91
41654;BMP280;30790;52.030;7.110;2022-08-19T01:10:22;100609.72;;;23.87
41654;BMP280;30790;52.030;7.110;2022-08-19T01:12:50;100600.97;;;23.85
41654;BMP280;30790;52.030;7.110;2022-08-19T01:15:19;100614.13;;;23.93
41654;BMP280;30790;52.030;7.110;2022-08-19T01:17:46;100609.72;;;23.92
41654;BMP280;30790;52.030;7.110;2022-08-19T01:20:16;100600.13;;;23.84
41654;BMP280;30790;52.030;7.110;2022-08-19T01:22:51;100615.50;;;23.90
41654;BMP280;30790;52.030;7.110;2022-08-19T01:25:19;100603.44;;;23.86
41654;BMP280;30790;52.030;7.110;2022-08-19T01:27:48;100605.34;;;23.91
41654;BMP280;30790;52.030;7.110;2022-08-19T01:30:18;100600.38;;;23.83
41654;BMP280;30790;52.030;7.110;2022-08-19T01:32:44;100607.00;;;23.87
41654;BMP280;30790;52.030;7.110;2022-08-19T01:35:10;100607.53;;;23.89
41654;BMP280;30790;52.030;7.110;2022-08-19T01:40:09;100583.13;;;23.77
41654;BMP280;30790;52.030;7.110;2022-08-19T01:42:35;100615.22;;;23.87
41654;BMP280;30790;52.030;7.110;2022-08-19T01:45:00;100613.56;;;23.86
41654;BMP280;30790;52.030;7.110;2022-08-19T01:47:26;100607.53;;;23.84
41654;BMP280;30790;52.030;7.110;2022-08-19T01:49:51;100611.09;;;23.84
41654;BMP280;30790;52.030;7.110;2022-08-19T01:52:16;100613.56;;;23.86
41654;BMP280;30790;52.030;7.110;2022-08-19T01:54:42;100606.16;;;23.86
41654;BMP280;30790;52.030;7.110;2022-08-19T01:57:10;100618.50;;;23.89
41654;BMP280;30790;52.030;7.110;2022-08-19T01:59:37;100614.41;;;23.86
41654;BMP280;30790;52.030;7.110;2022-08-19T02:02:05;100616.59;;;23.84
41654;BMP280;30790;52.030;7.110;2022-08-19T02:04:33;100602.84;;;23.79
41654;BMP280;30790;52.030;7.110;2022-08-19T02:06:59;100617.69;;;23.83
41654;BMP280;30790;52.030;7.110;2022-08-19T02:09:24;100603.66;;;23.80
41654;BMP280;30790;52.030;7.110;2022-08-19T02:11:49;100606.97;;;23.82
41654;BMP280;30790;52.030;7.110;2022-08-19T02:14:15;100610.78;;;23.81
41654;BMP280;30790;52.030;7.110;2022-08-19T02:16:40;100602.56;;;23.81
41654;BMP280;30790;52.030;7.110;2022-08-19T02:19:05;100605.84;;;23.78
41654;BMP280;30790;52.030;7.110;2022-08-19T02:21:31;100617.97;;;23.87
41654;BMP280;30790;52.030;7.110;2022-08-19T02:23:57;100599.56;;;23.82
41654;BMP280;30790;52.030;7.110;2022-08-19T02:26:22;100615.22;;;23.87
41654;BMP280;30790;52.030;7.110;2022-08-19T02:28:48;100600.69;;;23.86
41654;BMP280;30790;52.030;7.110;2022-08-19T02:31:17;100602.88;;;23.84
41654;BMP280;30790;52.030;7.110;2022-08-19T02:33:43;100607.81;;;23.87
41654;BMP280;30790;52.030;7.110;2022-08-19T02:36:10;100596.81;;;23.82
41654;BMP280;30790;52.030;7.110;2022-08-19T02:38:36;100599.31;;;23.84
41654;BMP280;30790;52.030;7.110;2022-08-19T02:41:09;100600.38;;;23.83
41654;BMP280;30790;52.030;7.110;2022-08-19T02:43:36;100594.63;;;23.79
41654;BMP280;30790;52.030;7.110;2022-08-19T02:46:11;100601.47;;;23.82
41654;BMP280;30790;52.030;7.110;2022-08-19T02:48:36;100608.59;;;23.83
41654;BMP280;30790;52.030;7.110;2022-08-19T02:51:02;100622.91;;;23.85
41654;BMP280;30790;52.030;7.110;2022-08-19T02:53:27;100619.06;;;23.86
41654;BMP280;30790;52.030;7.110;2022-08-19T02:55:53;100613.56;;;23.86
41654;BMP280;30790;52.030;7.110;2022-08-19T02:58:20;100603.66;;;23.80
41654;BMP280;30790;52.030;7.110;2022-08-19T03:00:52;100616.81;;;23.83
41654;BMP280;30790;52.030;7.110;2022-08-19T03:03:18;100616.59;;;23.84
41654;BMP280;30790;52.030;7.110;2022-08-19T03:05:44;100617.41;;;23.85
41654;BMP280;30790;52.030;7.110;2022-08-19T03:08:11;100617.41;;;23.85
41654;BMP280;30790;52.030;7.110;2022-08-19T03:10:45;100617.41;;;23.85
41654;BMP280;30790;52.030;7.110;2022-08-19T03:13:15;100609.97;;;23.80
41654;BMP280;30790;52.030;7.110;2022-08-19T03:15:43;100609.47;;;23.83
41654;BMP280;30790;52.030;7.110;2022-08-19T03:18:09;100619.56;;;23.83
41654;BMP280;30790;52.030;7.110;2022-08-19T03:20:43;100607.50;;;23.79
41654;BMP280;30790;52.030;7.110;2022-08-19T03:23:09;100605.03;;;23.77
41654;BMP280;30790;52.030;7.110;2022-08-19T03:25:40;100614.09;;;23.83
41654;BMP280;30790;52.030;7.110;2022-08-19T03:28:06;100594.34;;;23.76
41654;BMP280;30790;52.030;7.110;2022-08-19T03:30:32;100606.97;;;23.82
41654;BMP280;30790;52.030;7.110;2022-08-19T03:32:57;100593.25;;;23.77
41654;BMP280;30790;52.030;7.110;2022-08-19T03:35:23;100610.53;;;23.77
41654;BMP280;30790;52.030;7.110;2022-08-19T03:37:48;100609.16;;;23.80
41654;BMP280;30790;52.030;7.110;2022-08-19T03:40:13;100602.03;;;23.79
41654;BMP280;30790;52.030;7.110;2022-08-19T03:42:39;100587.22;;;23.69
41654;BMP280;30790;52.030;7.110;2022-08-19T03:45:06;100591.59;;;23.76
41654;BMP280;30790;52.030;7.110;2022-08-19T03:47:32;100603.38;;;23.76
41654;BMP280;30790;52.030;7.110;2022-08-19T03:49:57;100604.22;;;23.77
41654;BMP280;30790;52.030;7.110;2022-08-19T03:52:23;100591.88;;;23.69
41654;BMP280;30790;52.030;7.110;2022-08-19T03:54:48;100594.06;;;23.72
41654;BMP280;30790;52.030;7.110;2022-08-19T03:57:13;100593.25;;;23.77
41654;BMP280;30790;52.030;7.110;2022-08-19T03:59:39;100595.44;;;23.74
41654;BMP280;30790;52.030;7.110;2022-08-19T04:02:10;100595.44;;;23.74
41654;BMP280;30790;52.030;7.110;2022-08-19T04:04:38;100592.97;;;23.73
41654;BMP280;30790;52.030;7.110;2022-08-19T04:07:05;100605.84;;;23.78
41654;BMP280;30790;52.030;7.110;2022-08-19T04:09:31;100604.22;;;23.77
41654;BMP280;30790;52.030;7.110;2022-08-19T04:11:57;100597.34;;;23.69
41654;BMP280;30790;52.030;7.110;2022-08-19T04:14:25;100608.06;;;23.76
41654;BMP280;30790;52.030;7.110;2022-08-19T04:16:52;100592.41;;;23.66
41654;BMP280;30790;52.030;7.110;2022-08-19T04:19:19;100605.59;;;23.74
41654;BMP280;30790;52.030;7.110;2022-08-19T04:21:47;100598.19;;;23.74
41654;BMP280;30790;52.030;7.110;2022-08-19T04:24:14;100603.09;;;23.67
41654;BMP280;30790;52.030;7.110;2022-08-19T04:26:40;100597.91;;;23.66
41654;BMP280;30790;52.030;7.110;2022-08-19T04:29:14;100596.81;;;23.62
41654;BMP280;30790;52.030;7.110;2022-08-19T04:31:40;100595.72;;;23.63
41654;BMP280;30790;52.030;7.110;2022-08-19T04:34:08;100608.03;;;23.65
41654;BMP280;30790;52.030;7.110;2022-08-19T04:36:37;100608.59;;;23.62
41654;BMP280;30790;52.030;7.110;2022-08-19T04:39:09;100610.78;;;23.60
41654;BMP280;30790;52.030;7.110;2022-08-19T04:41:35;100594.88;;;23.57
41654;BMP280;30790;52.030;7.110;2022-08-19T04:44:19;100605.28;;;23.60
41654;BMP280;30790;52.030;7.110;2022-08-19T04:46:46;100598.38;;;23.53
41654;BMP280;30790;52.030;7.110;2022-08-19T04:49:14;100610.16;;;23.53
41654;BMP280;30790;52.030;7.110;2022-08-19T04:51:45;100614.81;;;23.53
41654;BMP280;30790;52.030;7.110;2022-08-19T04:54:13;100612.06;;;23.48
41654;BMP280;30790;52.030;7.110;2022-08-19T04:56:39;100613.13;;;23.31
41654;BMP280;30790;52.030;7.110;2022-08-19T04:59:05;100606.47;;;23.17
41654;BMP280;30790;52.030;7.110;2022-08-19T05:01:32;100610.56;;;23.09
41654;BMP280;30790;52.030;7.110;2022-08-19T05:04:02;100614.28;;;22.93
41654;BMP280;30790;52.030;7.110;2022-08-19T05:06:30;100627.97;;;22.93
41654;BMP280;30790;52.030;7.110;2022-08-19T05:08:57;100619.47;;;22.90
41654;BMP280;30790;52.030;7.110;2022-08-19T05:11:25;100619.22;;;22.96
41654;BMP280;30790;52.030;7.110;2022-08-19T05:13:51;100621.16;;;22.96
41654;BMP280;30790;52.030;7.110;2022-08-19T05:16:19;100608.22;;;22.81
41654;BMP280;30790;52.030;7.110;2022-08-19T05:18:45;100610.44;;;22.89
41654;BMP280;30790;52.030;7.110;2022-08-19T05:21:30;100618.97;;;22.98
41654;BMP280;30790;52.030;7.110;2022-08-19T05:24:15;100621.97;;;22.96
41654;BMP280;30790;52.030;7.110;2022-08-19T05:26:45;100621.66;;;22.88
41654;BMP280;30790;52.030;7.110;2022-08-19T05:29:12;100621.38;;;22.84
41654;BMP280;30790;52.030;7.110;2022-08-19T05:31:38;100621.19;;;22.64
41654;BMP280;30790;52.030;7.110;2022-08-19T05:34:04;100631.63;;;22.72
41654;BMP280;30790;52.030;7.110;2022-08-19T05:36:35;100640.72;;;22.77
41654;BMP280;30790;52.030;7.110;2022-08-19T05:39:02;100638.75;;;22.73
41654;BMP280;30790;52.030;7.110;2022-08-19T05:41:28;100636.00;;;22.68
41654;BMP280;30790;52.030;7.110;2022-08-19T05:43:56;100645.28;;;22.67
41654;BMP280;30790;52.030;7.110;2022-08-19T05:46:23;100639.66;;;22.78
41654;BMP280;30790;52.030;7.110;2022-08-19T05:48:48;100640.81;;;22.88
41654;BMP280;30790;52.030;7.110;2022-08-19T05:51:14;100639.44;;;22.85
41654;BMP280;30790;52.030;7.110;2022-08-19T05:53:41;100637.78;;;22.84
41654;BMP280;30790;52.030;7.110;2022-08-19T05:56:13;100625.69;;;22.80
41654;BMP280;30790;52.030;7.110;2022-08-19T05:58:42;100638.94;;;22.93
41654;BMP280;30790;52.030;7.110;2022-08-19T06:01:16;100635.38;;;22.93
41654;BMP280;30790;52.030;7.110;2022-08-19T06:03:42;100641.13;;;22.96
41654;BMP280;30790;52.030;7.110;2022-08-19T06:06:10;100640.56;;;22.94
41654;BMP280;30790;52.030;7.110;2022-08-19T06:08:37;100632.59;;;22.88
41654;BMP280;30790;52.030;7.110;2022-08-19T06:11:21;100634.50;;;22.82
41654;BMP280;30790;52.030;7.110;2022-08-19T06:13:50;100637.28;;;22.92
41654;BMP280;30790;52.030;7.110;2022-08-19T06:16:19;100627.69;;;22.90
41654;BMP280;30790;52.030;7.110;2022-08-19T06:18:47;100632.38;;;22.94
41654;BMP280;30790;52.030;7.110;2022-08-19T06:21:13;100633.44;;;22.93
41654;BMP280;30790;52.030;7.110;2022-08-19T06:23:39;100630.16;;;22.91
41654;BMP280;30790;52.030;7.110;2022-08-19T06:26:05;100640.00;;;22.92
41654;BMP280;30790;52.030;7.110;2022-08-19T06:28:31;100634.56;;;22.97
41654;BMP280;30790;52.030;7.110;2022-08-19T06:30:58;100619.22;;;22.91
41654;BMP280;30790;52.030;7.110;2022-08-19T06:33:23;100610.44;;;22.89
41654;BMP280;30790;52.030;7.110;2022-08-19T06:35:49;100612.13;;;23.00
41654;BMP280;30790;52.030;7.110;2022-08-19T06:38:14;100622.56;;;23.03
41654;BMP280;30790;52.030;7.110;2022-08-19T06:40:39;100614.88;;;23.00
41654;BMP280;30790;52.030;7.110;2022-08-19T06:43:05;100618.69;;;22.99
41654;BMP280;30790;52.030;7.110;2022-08-19T06:45:30;100619.28;;;23.01
41654;BMP280;30790;52.030;7.110;2022-08-19T06:47:56;100623.09;;;23.00
41654;BMP280;30790;52.030;7.110;2022-08-19T06:50:23;100621.22;;;23.06
41654;BMP280;30790;52.030;7.110;2022-08-19T06:52:48;100601.78;;;23.07
41654;BMP280;30790;52.030;7.110;2022-08-19T06:55:14;100611.66;;;23.08
41654;BMP280;30790;52.030;7.110;2022-08-19T06:57:41;100608.91;;;23.08
41654;BMP280;30790;52.030;7.110;2022-08-19T07:00:08;100618.78;;;23.15
41654;BMP280;30790;52.030;7.110;2022-08-19T07:02:38;100614.38;;;23.08
41654;BMP280;30790;52.030;7.110;2022-08-19T07:05:03;100606.44;;;23.07
41654;BMP280;30790;52.030;7.110;2022-08-19T07:07:29;100611.09;;;23.11
41654;BMP280;30790;52.030;7.110;2022-08-19T07:09:55;100609.47;;;23.10
41654;BMP280;30790;52.030;7.110;2022-08-19T07:12:21;100623.44;;;23.14
41654;BMP280;30790;52.030;7.110;2022-08-19T07:14:46;100623.41;;;23.09
41654;BMP280;30790;52.030;7.110;2022-08-19T07:17:14;100624.25;;;23.15
41654;BMP280;30790;52.030;7.110;2022-08-19T07:19:40;100624.25;;;23.15
41654;BMP280;30790;52.030;7.110;2022-08-19T07:22:08;100624.25;;;23.15
41654;BMP280;30790;52.030;7.110;2022-08-19T07:24:35;100617.38;;;23.07
41654;BMP280;30790;52.030;7.110;2022-08-19T07:27:03;100615.47;;;23.07
41654;BMP280;30790;52.030;7.110;2022-08-19T07:29:30;100637.97;;;23.20
41654;BMP280;30790;52.030;7.110;2022-08-19T07:31:58;100633.59;;;23.24
41654;BMP280;30790;52.030;7.110;2022-08-19T07:34:25;100629.47;;;23.16
41654;BMP280;30790;52.030;7.110;2022-08-19T07:36:51;100629.50;;;23.21
41654;BMP280;30790;52.030;7.110;2022-08-19T07:39:21;100638.53;;;23.27
41654;BMP280;30790;52.030;7.110;2022-08-19T07:41:47;100631.41;;;23.21
41654;BMP280;30790;52.030;7.110;2022-08-19T07:44:14;100647.59;;;23.27
41654;BMP280;30790;52.030;7.110;2022-08-19T07:46:43;100648.16;;;23.29
41654;BMP280;30790;52.030;7.110;2022-08-19T07:49:11;100647.84;;;23.26
41654;BMP280;30790;52.030;7.110;2022-08-19T07:51:42;100655.28;;;23.30
41654;BMP280;30790;52.030;7.110;2022-08-19T07:54:08;100651.97;;;23.28
41654;BMP280;30790;52.030;7.110;2022-08-19T07:56:33;100657.44;;;23.28
41654;BMP280;30790;52.030;7.110;2022-08-19T07:58:58;100653.34;;;23.26
41654;BMP280;30790;52.030;7.110;2022-08-19T08:01:26;100669.81;;;23.31
41654;BMP280;30790;52.030;7.110;2022-08-19T08:03:53;100670.38;;;23.33
41654;BMP280;30790;52.030;7.110;2022-08-19T08:06:37;100665.94;;;23.27
41654;BMP280;30790;52.030;7.110;2022-08-19T08:09:29;100672.84;;;23.34
41654;BMP280;30790;52.030;7.110;2022-08-19T08:11:58;100677.75;;;23.32
41654;BMP280;30790;52.030;7.110;2022-08-19T08:14:30;100678.59;;;23.33
41654;BMP280;30790;52.030;7.110;2022-08-19T08:16:57;100675.84;;;23.33
41654;BMP280;30790;52.030;7.110;2022-08-19T08:19:23;100674.75;;;23.34
41654;BMP280;30790;52.030;7.110;2022-08-19T08:21:49;100661.28;;;23.27
41654;BMP280;30790;52.030;7.110;2022-08-19T08:24:16;100662.09;;;23.28
41654;BMP280;30790;52.030;7.110;2022-08-19T08:26:42;100669.81;;;23.31
41654;BMP280;30790;52.030;7.110;2022-08-19T08:29:09;100679.13;;;23.35
41654;BMP280;30790;52.030;7.110;2022-08-19T08:31:36;100685.41;;;23.30
41654;BMP280;30790;52.030;7.110;2022-08-19T08:34:02;100680.75;;;23.31
41654;BMP280;30790;52.030;7.110;2022-08-19T08:36:28;100674.72;;;23.29
41654;BMP280;30790;52.030;7.110;2022-08-19T08:38:54;100677.47;;;23.29
41654;BMP280;30790;52.030;7.110;2022-08-19T08:41:22;100693.66;;;23.35
41654;BMP280;30790;52.030;7.110;2022-08-19T08:43:54;100687.34;;;23.35
41654;BMP280;30790;52.030;7.110;2022-08-19T08:46:35;100683.50;;;23.31
41654;BMP280;30790;52.030;7.110;2022-08-19T08:51:47;100678.03;;;23.31
41654;BMP280;30790;52.030;7.110;2022-08-19T08:54:20;100689.28;;;23.34
41654;BMP280;30790;52.030;7.110;2022-08-19T08:56:46;100673.06;;;23.28
41654;BMP280;30790;52.030;7.110;2022-08-19T08:59:21;100683.53;;;23.36
41654;BMP280;30790;52.030;7.110;2022-08-19T09:01:48;100689.00;;;23.36
41654;BMP280;30790;52.030;7.110;2022-08-19T09:04:13;100664.84;;;23.28
41654;BMP280;30790;52.030;7.110;2022-08-19T09:06:58;100683.53;;;23.36
41654;BMP280;30790;52.030;7.110;2022-08-19T09:09:37;100681.59;;;23.31
41654;BMP280;30790;52.030;7.110;2022-08-19T09:12:20;100692.56;;;23.36
41654;BMP280;30790;52.030;7.110;2022-08-19T09:15:06;100685.16;;;23.32
41654;BMP280;30790;52.030;7.110;2022-08-19T09:17:33;100686.81;;;23.33
41654;BMP280;30790;52.030;7.110;2022-08-19T09:22:39;100683.78;;;23.34
41654;BMP280;30790;52.030;7.110;2022-08-19T09:25:07;100681.34;;;23.38
41654;BMP280;30790;52.030;7.110;2022-08-19T09:27:33;100680.78;;;23.36
41654;BMP280;30790;52.030;7.110;2022-08-19T09:30:04;100692.84;;;23.40
41654;BMP280;30790;52.030;7.110;2022-08-19T09:32:30;100683.25;;;23.37
41654;BMP280;30790;52.030;7.110;2022-08-19T09:34:56;100673.66;;;23.35
41654;BMP280;30790;52.030;7.110;2022-08-19T09:37:23;100679.16;;;23.40
41654;BMP280;30790;52.030;7.110;2022-08-19T09:39:49;100673.09;;;23.33
41654;BMP280;30790;52.030;7.110;2022-08-19T09:42:14;100676.94;;;23.32
41654;BMP280;30790;52.030;7.110;2022-08-19T09:44:41;100689.56;;;23.38
41654;BMP280;30790;52.030;7.110;2022-08-19T09:47:07;100682.44;;;23.37
41654;BMP280;30790;52.030;7.110;2022-08-19T09:49:33;100670.91;;;23.35
41654;BMP280;30790;52.030;7.110;2022-08-19T09:51:59;100665.44;;;23.30
41654;BMP280;30790;52.030;7.110;2022-08-19T09:54:24;100673.94;;;23.38
41654;BMP280;30790;52.030;7.110;2022-08-19T09:56:51;100677.50;;;23.39
41654;BMP280;30790;52.030;7.110;2022-08-19T09:59:16;100659.94;;;23.30
41654;BMP280;30790;52.030;7.110;2022-08-19T10:01:42;100657.75;;;23.32
41654;BMP280;30790;52.030;7.110;2022-08-19T10:04:07;100673.94;;;23.38
41654;BMP280;30790;52.030;7.110;2022-08-19T10:06:38;100672.03;;;23.39
41654;BMP280;30790;52.030;7.110;2022-08-19T10:09:05;100672.03;;;23.39
41654;BMP280;30790;52.030;7.110;2022-08-19T10:11:32;100670.13;;;23.39
41654;BMP280;30790;52.030;7.110;2022-08-19T10:13:58;100672.03;;;23.39
41654;BMP280;30790;52.030;7.110;2022-08-19T10:16:25;100657.75;;;23.32
41654;BMP280;30790;52.030;7.110;2022-08-19T10:18:50;100672.31;;;23.42
41654;BMP280;30790;52.030;7.110;2022-08-19T10:21:22;100670.66;;;23.41
41654;BMP280;30790;52.030;7.110;2022-08-19T10:23:50;100655.59;;;23.34
41654;BMP280;30790;52.030;7.110;2022-08-19T10:26:24;100661.06;;;23.39
41654;BMP280;30790;52.030;7.110;2022-08-19T10:28:50;100642.41;;;23.31
41654;BMP280;30790;52.030;7.110;2022-08-19T10:31:19;100665.72;;;23.38
41654;BMP280;30790;52.030;7.110;2022-08-19T10:33:47;100665.47;;;23.40
41654;BMP280;30790;52.030;7.110;2022-08-19T10:36:24;100666.00;;;23.37
41654;BMP280;30790;52.030;7.110;2022-08-19T10:38:52;100679.72;;;23.42
41654;BMP280;30790;52.030;7.110;2022-08-19T10:41:22;100674.22;;;23.42
41654;BMP280;30790;52.030;7.110;2022-08-19T10:43:53;100670.41;;;23.43
41654;BMP280;30790;52.030;7.110;2022-08-19T10:46:21;100678.63;;;23.43
41654;BMP280;30790;52.030;7.110;2022-08-19T10:48:48;100668.47;;;23.38
41654;BMP280;30790;52.030;7.110;2022-08-19T10:51:14;100666.00;;;23.37
41654;BMP280;30790;52.030;7.110;2022-08-19T10:53:59;100667.94;;;23.41
41654;BMP280;30790;52.030;7.110;2022-08-19T10:56:25;100663.81;;;23.39
41654;BMP280;30790;52.030;7.110;2022-08-19T10:59:09;100651.75;;;23.40
41654;BMP280;30790;52.030;7.110;2022-08-19T11:01:36;100657.50;;;23.38
41654;BMP280;30790;52.030;7.110;2022-08-19T11:04:03;100642.44;;;23.36
41654;BMP280;30790;52.030;7.110;2022-08-19T11:06:31;100656.69;;;23.43
41654;BMP280;30790;52.030;7.110;2022-08-19T11:08:57;100664.91;;;23.43
41654;BMP280;30790;52.030;7.110;2022-08-19T11:11:23;100667.41;;;23.44
41654;BMP280;30790;52.030;7.110;2022-08-19T11:13:49;100666.56;;;23.44
41654;BMP280;30790;52.030;7.110;2022-08-19T11:16:20;100672.88;;;23.44
41654;BMP280;30790;52.030;7.110;2022-08-19T11:18:49;100672.03;;;23.44
41654;BMP280;30790;52.030;7.110;2022-08-19T11:21:30;100663.81;;;23.44
41654;BMP280;30790;52.030;7.110;2022-08-19T11:24:00;100666.56;;;23.44
41654;BMP280;30790;52.030;7.110;2022-08-19T11:26:27;100650.13;;;23.44
41654;BMP280;30790;52.030;7.110;2022-08-19T11:28:53;100650.38;;;23.37
41654;BMP280;30790;52.030;7.110;2022-08-19T11:31:25;100656.44;;;23.44
41654;BMP280;30790;52.030;7.110;2022-08-19T11:33:51;100648.19;;;23.39
41654;BMP280;30790;52.030;7.110;2022-08-19T11:36:19;100657.25;;;23.45
41654;BMP280;30790;52.030;7.110;2022-08-19T11:38:46;100660.00;;;23.45
41654;BMP280;30790;52.030;7.110;2022-08-19T11:41:14;100643.25;;;23.36
41654;BMP280;30790;52.030;7.110;2022-08-19T11:43:39;100639.44;;;23.42
41654;BMP280;30790;52.030;7.110;2022-08-19T11:46:10;100644.66;;;23.44
41654;BMP280;30790;52.030;7.110;2022-08-19T11:48:37;100640.53;;;23.41
41654;BMP280;30790;52.030;7.110;2022-08-19T11:51:08;100634.22;;;23.41
41654;BMP280;30790;52.030;7.110;2022-08-19T11:53:34;100639.16;;;23.44
41654;BMP280;30790;52.030;7.110;2022-08-19T11:55:59;100639.16;;;23.44
41654;BMP280;30790;52.030;7.110;2022-08-19T11:58:24;100630.69;;;23.40
41654;BMP280;30790;52.030;7.110;2022-08-19T12:00:50;100631.75;;;23.39
41654;BMP280;30790;52.030;7.110;2022-08-19T12:03:16;100628.19;;;23.39
41654;BMP280;30790;52.030;7.110;2022-08-19T12:05:42;100632.59;;;23.45
41654;BMP280;30790;52.030;7.110;2022-08-19T12:08:08;100637.81;;;23.47
41654;BMP280;30790;52.030;7.110;2022-08-19T12:10:34;100624.34;;;23.35
41654;BMP280;30790;52.030;7.110;2022-08-19T12:12:59;100635.06;;;23.47
41654;BMP280;30790;52.030;7.110;2022-08-19T12:15:26;100599.09;;;23.28
41654;BMP280;30790;52.030;7.110;2022-08-19T12:17:52;100627.13;;;23.45
41654;BMP280;30790;52.030;7.110;2022-08-19T12:20:20;100627.66;;;23.42
41654;BMP280;30790;52.030;7.110;2022-08-19T12:22:45;100631.50;;;23.46
41654;BMP280;30790;52.030;7.110;2022-08-19T12:25:11;100637.00;;;23.46
41654;BMP280;30790;52.030;7.110;2022-08-19T12:27:37;100638.34;;;23.43
41654;BMP280;30790;52.030;7.110;2022-08-19T12:30:06;100633.97;;;23.48
41654;BMP280;30790;52.030;7.110;2022-08-19T12:32:32;100614.50;;;23.39
41654;BMP280;30790;52.030;7.110;2022-08-19T12:34:57;100615.31;;;23.39
41654;BMP280;30790;52.030;7.110;2022-08-19T12:37:23;100617.81;;;23.41
41654;BMP280;30790;52.030;7.110;2022-08-19T12:39:48;100613.97;;;23.42
41654;BMP280;30790;52.030;7.110;2022-08-19T12:42:14;100605.75;;;23.42
41654;BMP280;30790;52.030;7.110;2022-08-19T12:44:42;100615.06;;;23.46
41654;BMP280;30790;52.030;7.110;2022-08-19T12:47:10;100611.25;;;23.47
41654;BMP280;30790;52.030;7.110;2022-08-19T12:49:37;100611.25;;;23.47
41654;BMP280;30790;52.030;7.110;2022-08-19T12:52:05;100612.06;;;23.48
41654;BMP280;30790;52.030;7.110;2022-08-19T12:54:31;100604.13;;;23.46
41654;BMP280;30790;52.030;7.110;2022-08-19T12:56:57;100611.25;;;23.47
41654;BMP280;30790;52.030;7.110;2022-08-19T12:59:23;100596.44;;;23.38
41654;BMP280;30790;52.030;7.110;2022-08-19T13:01:48;100602.19;;;23.41
41654;BMP280;30790;52.030;7.110;2022-08-19T13:04:14;100603.28;;;23.46
41654;BMP280;30790;52.030;7.110;2022-08-19T13:06:40;100607.41;;;23.48
41654;BMP280;30790;52.030;7.110;2022-08-19T13:09:05;100598.63;;;23.41
41654;BMP280;30790;52.030;7.110;2022-08-19T13:11:31;100601.94;;;23.48
41654;BMP280;30790;52.030;7.110;2022-08-19T13:13:59;100594.53;;;23.43
41654;BMP280;30790;52.030;7.110;2022-08-19T13:16:25;100602.75;;;23.49
41654;BMP280;30790;52.030;7.110;2022-08-19T13:18:52;100600.28;;;23.47
41654;BMP280;30790;52.030;7.110;2022-08-19T13:21:18;100598.09;;;23.49
41654;BMP280;30790;52.030;7.110;2022-08-19T13:23:45;100604.13;;;23.46
41654;BMP280;30790;52.030;7.110;2022-08-19T13:26:11;100593.97;;;23.47
41654;BMP280;30790;52.030;7.110;2022-08-19T13:28:37;100589.31;;;23.42
41654;BMP280;30790;52.030;7.110;2022-08-19T13:31:23;100589.88;;;23.44
41654;BMP280;30790;52.030;7.110;2022-08-19T13:34:08;100585.22;;;23.44
41654;BMP280;30790;52.030;7.110;2022-08-19T13:36:34;100600.56;;;23.51
41654;BMP280;30790;52.030;7.110;2022-08-19T13:38:59;100587.69;;;23.46
41654;BMP280;30790;52.030;7.110;2022-08-19T13:41:25;100588.78;;;23.50
41654;BMP280;30790;52.030;7.110;2022-08-19T13:43:51;100575.34;;;23.43
41654;BMP280;30790;52.030;7.110;2022-08-19T13:46:17;100573.69;;;23.42
41654;BMP280;30790;52.030;7.110;2022-08-19T13:48:42;100579.47;;;23.51
41654;BMP280;30790;52.030;7.110;2022-08-19T13:51:08;100575.34;;;23.49
41654;BMP280;30790;52.030;7.110;2022-08-19T13:53:38;100580.00;;;23.53
41654;BMP280;30790;52.030;7.110;2022-08-19T13:56:05;100573.72;;;23.53
41654;BMP280;30790;52.030;7.110;2022-08-19T13:58:32;100564.13;;;23.45
41654;BMP280;30790;52.030;7.110;2022-08-19T14:00:57;100580.00;;;23.53
41654;BMP280;30790;52.030;7.110;2022-08-19T14:03:24;100566.31;;;23.48
41654;BMP280;30790;52.030;7.110;2022-08-19T14:05:49;100570.16;;;23.52
41654;BMP280;30790;52.030;7.110;2022-08-19T14:08:15;100572.63;;;23.54